sensor_id;sensor_type;location;lat;lon;timestamp;temperature;humidity
22192;DHT22;11261;52.456;10.850;2023-09-08T00:02:08;17.30;99.90
22192;DHT22;11261;52.456;10.850;2023-09-08T00:04:37;17.30;99.90
22192;DHT22;11261;52.456;10.850;2023-09-08T00:07:05;17.40;99.90
22192;DHT22;11261;52.456;10.850;2023-09-08T00:09:33;17.30;99.90
22192;DHT22;11261;52.456;10.850;2023-09-08T00:12:04;17.30;99.90
22192;DHT22;11261;52.456;10.850;2023-09-08T00:14:32;17.30;99.90
22192;DHT22;11261;52.456;10.850;2023-09-08T00:17:00;17.30;99.90
22192;DHT22;11261;52.456;10.850;2023-09-08T00:19:29;17.30;99.90
22192;DHT22;11261;52.456;10.850;2023-09-08T00:21:57;17.30;99.90
22192;DHT22;11261;52.456;10.850;2023-09-08T00:24:27;17.20;99.90
22192;DHT22;11261;52.456;10.850;2023-09-08T00:26:55;17.20;99.90
22192;DHT22;11261;52.456;10.850;2023-09-08T00:29:25;17.10;99.90
22192;DHT22;11261;52.456;10.850;2023-09-08T00:31:53;17.10;99.90
22192;DHT22;11261;52.456;10.850;2023-09-08T00:34:22;17.00;99.90
22192;DHT22;11261;52.456;10.850;2023-09-08T00:36:50;17.00;99.90
22192;DHT22;11261;52.456;10.850;2023-09-08T00:39:19;17.00;99.90
22192;DHT22;11261;52.456;10.850;2023-09-08T00:41:47;17.00;99.90
22192;DHT22;11261;52.456;10.850;2023-09-08T00:44:16;17.00;99.90
22192;DHT22;11261;52.456;10.850;2023-09-08T00:46:45;16.90;99.90
22192;DHT22;11261;52.456;10.850;2023-09-08T00:49:14;16.90;99.90
22192;DHT22;11261;52.456;10.850;2023-09-08T00:51:42;16.80;99.90
22192;DHT22;11261;52.456;10.850;2023-09-08T00:54:10;16.80;99.90
22192;DHT22;11261;52.456;10.850;2023-09-08T00:56:39;16.80;99.90
22192;DHT22;11261;52.456;10.850;2023-09-08T00:59:08;16.70;99.90
22192;DHT22;11261;52.456;10.850;2023-09-08T01:01:37;16.70;99.90
22192;DHT22;11261;52.456;10.850;2023-09-08T01:04:07;16.60;99.90
22192;DHT22;11261;52.456;10.850;2023-09-08T01:06:35;16.60;99.90
22192;DHT22;11261;52.456;10.850;2023-09-08T01:09:04;16.60;99.90
22192;DHT22;11261;52.456;10.850;2023-09-08T01:11:33;16.60;99.90
22192;DHT22;11261;52.456;10.850;2023-09-08T01:14:01;16.50;99.90
22192;DHT22;11261;52.456;10.850;2023-09-08T01:16:30;16.50;99.90
22192;DHT22;11261;52.456;10.850;2023-09-08T01:18:59;16.50;99.90
22192;DHT22;11261;52.456;10.850;2023-09-08T01:22:14;16.40;99.90
22192;DHT22;11261;52.456;10.850;2023-09-08T01:25:01;16.40;99.90
22192;DHT22;11261;52.456;10.850;2023-09-08T01:27:33;16.40;99.90
22192;DHT22;11261;52.456;10.850;2023-09-08T01:30:02;16.40;99.90
22192;DHT22;11261;52.456;10.850;2023-09-08T01:32:32;16.40;99.90
22192;DHT22;11261;52.456;10.850;2023-09-08T01:35:01;16.40;99.90
22192;DHT22;11261;52.456;10.850;2023-09-08T01:37:29;16.30;99.90
22192;DHT22;11261;52.456;10.850;2023-09-08T01:39:59;16.30;99.90
22192;DHT22;11261;52.456;10.850;2023-09-08T01:42:27;16.20;99.90
22192;DHT22;11261;52.456;10.850;2023-09-08T01:44:55;16.20;99.90
22192;DHT22;11261;52.456;10.850;2023-09-08T01:47:24;16.10;99.90
22192;DHT22;11261;52.456;10.850;2023-09-08T01:49:52;16.20;99.90
22192;DHT22;11261;52.456;10.850;2023-09-08T01:52:20;16.10;99.90
22192;DHT22;11261;52.456;10.850;2023-09-08T01:54:49;16.10;99.90
22192;DHT22;11261;52.456;10.850;2023-09-08T01:57:19;16.10;99.90
22192;DHT22;11261;52.456;10.850;2023-09-08T01:59:47;16.00;99.90
22192;DHT22;11261;52.456;10.850;2023-09-08T02:02:15;16.00;99.90
22192;DHT22;11261;52.456;10.850;2023-09-08T02:04:44;15.90;99.90
22192;DHT22;11261;52.456;10.850;2023-09-08T02:07:13;15.90;99.90
22192;DHT22;11261;52.456;10.850;2023-09-08T02:09:41;15.80;99.90
22192;DHT22;11261;52.456;10.850;2023-09-08T02:12:10;15.80;99.90
22192;DHT22;11261;52.456;10.850;2023-09-08T02:14:39;15.70;99.90
22192;DHT22;11261;52.456;10.850;2023-09-08T02:17:07;15.70;99.90
22192;DHT22;11261;52.456;10.850;2023-09-08T02:19:37;15.70;99.90
22192;DHT22;11261;52.456;10.850;2023-09-08T02:22:05;15.60;99.90
22192;DHT22;11261;52.456;10.850;2023-09-08T02:24:34;15.60;99.90
22192;DHT22;11261;52.456;10.850;2023-09-08T02:27:02;15.50;99.90
22192;DHT22;11261;52.456;10.850;2023-09-08T02:29:31;15.60;99.90
22192;DHT22;11261;52.456;10.850;2023-09-08T02:32:00;15.60;99.90
22192;DHT22;11261;52.456;10.850;2023-09-08T02:34:29;15.60;99.90
22192;DHT22;11261;52.456;10.850;2023-09-08T02:36:58;15.60;99.90
22192;DHT22;11261;52.456;10.850;2023-09-08T02:39:26;15.60;99.90
22192;DHT22;11261;52.456;10.850;2023-09-08T02:41:55;15.60;99.90
22192;DHT22;11261;52.456;10.850;2023-09-08T02:44:23;15.60;99.90
22192;DHT22;11261;52.456;10.850;2023-09-08T02:46:52;15.50;99.90
22192;DHT22;11261;52.456;10.850;2023-09-08T02:49:22;15.40;99.90
22192;DHT22;11261;52.456;10.850;2023-09-08T02:51:50;15.50;99.90
22192;DHT22;11261;52.456;10.850;2023-09-08T02:54:19;15.50;99.90
22192;DHT22;11261;52.456;10.850;2023-09-08T02:56:47;15.20;99.90
22192;DHT22;11261;52.456;10.850;2023-09-08T02:59:15;15.20;99.90
22192;DHT22;11261;52.456;10.850;2023-09-08T03:01:44;15.20;99.90
22192;DHT22;11261;52.456;10.850;2023-09-08T03:04:12;15.30;99.90
22192;DHT22;11261;52.456;10.850;2023-09-08T03:06:42;15.30;99.90
22192;DHT22;11261;52.456;10.850;2023-09-08T03:09:10;15.30;99.90
22192;DHT22;11261;52.456;10.850;2023-09-08T03:11:38;15.30;99.90
22192;DHT22;11261;52.456;10.850;2023-09-08T03:14:07;15.30;99.90
22192;DHT22;11261;52.456;10.850;2023-09-08T03:16:35;15.30;99.90
22192;DHT22;11261;52.456;10.850;2023-09-08T03:19:03;15.20;99.90
22192;DHT22;11261;52.456;10.850;2023-09-08T03:21:33;15.20;99.90
22192;DHT22;11261;52.456;10.850;2023-09-08T03:24:03;15.20;99.90
22192;DHT22;11261;52.456;10.850;2023-09-08T03:26:31;15.20;99.90
22192;DHT22;11261;52.456;10.850;2023-09-08T03:28:59;15.20;99.90
22192;DHT22;11261;52.456;10.850;2023-09-08T03:31:27;15.20;99.90
22192;DHT22;11261;52.456;10.850;2023-09-08T03:33:56;15.10;99.90
22192;DHT22;11261;52.456;10.850;2023-09-08T03:36:23;15.10;99.90
22192;DHT22;11261;52.456;10.850;2023-09-08T03:38:52;15.00;99.90
22192;DHT22;11261;52.456;10.850;2023-09-08T03:41:22;15.00;99.90
22192;DHT22;11261;52.456;10.850;2023-09-08T03:43:50;14.90;99.90
22192;DHT22;11261;52.456;10.850;2023-09-08T03:46:18;14.80;99.90
22192;DHT22;11261;52.456;10.850;2023-09-08T03:48:47;14.80;99.90
22192;DHT22;11261;52.456;10.850;2023-09-08T03:51:15;14.80;99.90
22192;DHT22;11261;52.456;10.850;2023-09-08T03:53:44;14.80;99.90
22192;DHT22;11261;52.456;10.850;2023-09-08T03:56:12;14.80;99.90
22192;DHT22;11261;52.456;10.850;2023-09-08T03:58:42;14.80;99.90
22192;DHT22;11261;52.456;10.850;2023-09-08T04:01:10;14.80;99.90
22192;DHT22;11261;52.456;10.850;2023-09-08T04:03:38;14.80;99.90
22192;DHT22;11261;52.456;10.850;2023-09-08T04:06:06;14.80;99.90
22192;DHT22;11261;52.456;10.850;2023-09-08T04:08:36;14.80;99.90
22192;DHT22;11261;52.456;10.850;2023-09-08T04:11:04;14.80;99.90
22192;DHT22;11261;52.456;10.850;2023-09-08T04:13:33;14.80;99.90
22192;DHT22;11261;52.456;10.850;2023-09-08T04:16:02;14.80;99.90
22192;DHT22;11261;52.456;10.850;2023-09-08T04:18:31;14.40;99.90
22192;DHT22;11261;52.456;10.850;2023-09-08T04:21:00;14.30;99.90
22192;DHT22;11261;52.456;10.850;2023-09-08T04:23:28;14.30;99.90
22192;DHT22;11261;52.456;10.850;2023-09-08T04:25:57;14.20;99.90
22192;DHT22;11261;52.456;10.850;2023-09-08T04:28:26;14.20;99.90
22192;DHT22;11261;52.456;10.850;2023-09-08T04:30:54;14.20;99.90
22192;DHT22;11261;52.456;10.850;2023-09-08T04:33:24;14.10;99.90
22192;DHT22;11261;52.456;10.850;2023-09-08T04:35:53;14.00;99.90
22192;DHT22;11261;52.456;10.850;2023-09-08T04:38:21;13.90;99.90
22192;DHT22;11261;52.456;10.850;2023-09-08T04:40:50;14.10;99.90
22192;DHT22;11261;52.456;10.850;2023-09-08T04:43:18;14.20;99.90
22192;DHT22;11261;52.456;10.850;2023-09-08T04:45:46;14.40;99.90
22192;DHT22;11261;52.456;10.850;2023-09-08T04:48:15;14.40;99.90
22192;DHT22;11261;52.456;10.850;2023-09-08T04:50:45;14.50;99.90
22192;DHT22;11261;52.456;10.850;2023-09-08T04:53:13;14.40;99.90
22192;DHT22;11261;52.456;10.850;2023-09-08T04:55:43;14.50;99.90
22192;DHT22;11261;52.456;10.850;2023-09-08T04:58:12;14.50;99.90
22192;DHT22;11261;52.456;10.850;2023-09-08T05:00:40;14.50;99.90
22192;DHT22;11261;52.456;10.850;2023-09-08T05:03:08;14.50;99.90
22192;DHT22;11261;52.456;10.850;2023-09-08T05:05:37;14.60;99.90
22192;DHT22;11261;52.456;10.850;2023-09-08T05:08:07;15.00;99.90
22192;DHT22;11261;52.456;10.850;2023-09-08T05:10:36;14.80;99.90
22192;DHT22;11261;52.456;10.850;2023-09-08T05:13:04;15.20;99.90
22192;DHT22;11261;52.456;10.850;2023-09-08T05:15:46;15.50;99.90
22192;DHT22;11261;52.456;10.850;2023-09-08T05:18:15;15.10;99.90
22192;DHT22;11261;52.456;10.850;2023-09-08T05:20:44;15.10;99.90
22192;DHT22;11261;52.456;10.850;2023-09-08T05:23:13;15.40;99.90
22192;DHT22;11261;52.456;10.850;2023-09-08T05:25:42;15.70;99.90
22192;DHT22;11261;52.456;10.850;2023-09-08T05:28:10;16.00;99.90
22192;DHT22;11261;52.456;10.850;2023-09-08T05:30:39;16.60;99.90
22192;DHT22;11261;52.456;10.850;2023-09-08T05:33:07;16.90;99.90
22192;DHT22;11261;52.456;10.850;2023-09-08T05:35:36;16.80;99.90
22192;DHT22;11261;52.456;10.850;2023-09-08T05:38:04;17.20;99.90
22192;DHT22;11261;52.456;10.850;2023-09-08T05:40:34;17.70;99.90
22192;DHT22;11261;52.456;10.850;2023-09-08T05:43:03;18.40;99.90
22192;DHT22;11261;52.456;10.850;2023-09-08T05:45:32;18.70;99.90
22192;DHT22;11261;52.456;10.850;2023-09-08T05:48:02;18.90;99.90
22192;DHT22;11261;52.456;10.850;2023-09-08T05:50:31;18.50;99.90
22192;DHT22;11261;52.456;10.850;2023-09-08T05:52:59;19.30;99.90
22192;DHT22;11261;52.456;10.850;2023-09-08T05:55:28;19.70;99.90
22192;DHT22;11261;52.456;10.850;2023-09-08T05:57:58;19.70;99.90
22192;DHT22;11261;52.456;10.850;2023-09-08T06:00:26;19.90;99.90
22192;DHT22;11261;52.456;10.850;2023-09-08T06:02:54;20.30;99.90
22192;DHT22;11261;52.456;10.850;2023-09-08T06:05:23;19.90;99.90
22192;DHT22;11261;52.456;10.850;2023-09-08T06:07:52;19.30;99.90
22192;DHT22;11261;52.456;10.850;2023-09-08T06:10:33;19.30;99.90
22192;DHT22;11261;52.456;10.850;2023-09-08T06:13:03;19.40;99.90
22192;DHT22;11261;52.456;10.850;2023-09-08T06:15:31;20.10;99.90
22192;DHT22;11261;52.456;10.850;2023-09-08T06:18:00;20.20;99.90
22192;DHT22;11261;52.456;10.850;2023-09-08T06:20:28;20.00;99.90
22192;DHT22;11261;52.456;10.850;2023-09-08T06:22:57;20.40;99.90
22192;DHT22;11261;52.456;10.850;2023-09-08T06:25:26;19.30;99.90
22192;DHT22;11261;52.456;10.850;2023-09-08T06:27:56;18.80;99.90
22192;DHT22;11261;52.456;10.850;2023-09-08T06:30:26;18.20;99.90
22192;DHT22;11261;52.456;10.850;2023-09-08T06:32:54;18.70;99.90
22192;DHT22;11261;52.456;10.850;2023-09-08T06:35:23;19.40;99.90
22192;DHT22;11261;52.456;10.850;2023-09-08T06:37:52;18.90;99.90
22192;DHT22;11261;52.456;10.850;2023-09-08T06:40:20;19.10;99.90
22192;DHT22;11261;52.456;10.850;2023-09-08T06:42:48;18.90;99.90
22192;DHT22;11261;52.456;10.850;2023-09-08T06:45:16;19.00;99.90
22192;DHT22;11261;52.456;10.850;2023-09-08T06:47:46;19.60;99.90
22192;DHT22;11261;52.456;10.850;2023-09-08T06:50:17;20.10;99.90
22192;DHT22;11261;52.456;10.850;2023-09-08T06:52:45;19.70;99.90
22192;DHT22;11261;52.456;10.850;2023-09-08T06:55:13;20.40;99.90
22192;DHT22;11261;52.456;10.850;2023-09-08T06:57:43;20.40;99.90
22192;DHT22;11261;52.456;10.850;2023-09-08T07:00:12;20.80;99.90
22192;DHT22;11261;52.456;10.850;2023-09-08T07:02:41;20.60;99.90
22192;DHT22;11261;52.456;10.850;2023-09-08T07:05:11;20.60;99.90
22192;DHT22;11261;52.456;10.850;2023-09-08T07:07:39;20.90;99.90
22192;DHT22;11261;52.456;10.850;2023-09-08T07:10:10;20.60;99.90
22192;DHT22;11261;52.456;10.850;2023-09-08T07:12:39;21.10;99.90
22192;DHT22;11261;52.456;10.850;2023-09-08T07:15:08;20.30;99.90
22192;DHT22;11261;52.456;10.850;2023-09-08T07:17:37;21.60;99.90
22192;DHT22;11261;52.456;10.850;2023-09-08T07:20:06;21.20;99.90
22192;DHT22;11261;52.456;10.850;2023-09-08T07:22:36;21.60;99.90
22192;DHT22;11261;52.456;10.850;2023-09-08T07:25:05;21.60;99.90
22192;DHT22;11261;52.456;10.850;2023-09-08T07:27:34;22.00;99.90
22192;DHT22;11261;52.456;10.850;2023-09-08T07:30:02;22.10;99.90
22192;DHT22;11261;52.456;10.850;2023-09-08T07:32:30;22.20;99.90
22192;DHT22;11261;52.456;10.850;2023-09-08T07:34:59;22.10;99.90
22192;DHT22;11261;52.456;10.850;2023-09-08T07:37:27;22.00;99.90
22192;DHT22;11261;52.456;10.850;2023-09-08T07:39:57;22.30;99.90
22192;DHT22;11261;52.456;10.850;2023-09-08T07:42:26;22.30;99.90
22192;DHT22;11261;52.456;10.850;2023-09-08T07:44:54;22.60;99.90
22192;DHT22;11261;52.456;10.850;2023-09-08T07:47:23;22.60;99.90
22192;DHT22;11261;52.456;10.850;2023-09-08T07:49:51;22.90;99.90
22192;DHT22;11261;52.456;10.850;2023-09-08T07:52:19;23.10;99.90
22192;DHT22;11261;52.456;10.850;2023-09-08T07:54:48;22.70;99.90
22192;DHT22;11261;52.456;10.850;2023-09-08T07:57:18;23.30;99.90
22192;DHT22;11261;52.456;10.850;2023-09-08T07:59:46;22.80;99.90
22192;DHT22;11261;52.456;10.850;2023-09-08T08:02:14;22.80;99.90
22192;DHT22;11261;52.456;10.850;2023-09-08T08:04:43;23.90;99.90
22192;DHT22;11261;52.456;10.850;2023-09-08T08:07:11;23.70;99.90
22192;DHT22;11261;52.456;10.850;2023-09-08T08:09:39;23.60;99.90
22192;DHT22;11261;52.456;10.850;2023-09-08T08:12:10;23.90;99.90
22192;DHT22;11261;52.456;10.850;2023-09-08T08:14:39;24.20;99.90
22192;DHT22;11261;52.456;10.850;2023-09-08T08:17:08;24.50;99.90
22192;DHT22;11261;52.456;10.850;2023-09-08T08:19:36;24.40;99.90
22192;DHT22;11261;52.456;10.850;2023-09-08T08:22:05;24.80;99.90
22192;DHT22;11261;52.456;10.850;2023-09-08T08:24:33;25.20;99.90
22192;DHT22;11261;52.456;10.850;2023-09-08T08:27:02;26.30;99.90
22192;DHT22;11261;52.456;10.850;2023-09-08T08:29:31;26.10;99.90
22192;DHT22;11261;52.456;10.850;2023-09-08T08:32:00;25.40;99.90
22192;DHT22;11261;52.456;10.850;2023-09-08T08:34:29;25.60;99.90
22192;DHT22;11261;52.456;10.850;2023-09-08T08:36:57;25.60;99.90
22192;DHT22;11261;52.456;10.850;2023-09-08T08:39:26;25.60;99.90
22192;DHT22;11261;52.456;10.850;2023-09-08T08:41:54;25.60;99.90
22192;DHT22;11261;52.456;10.850;2023-09-08T08:44:23;25.80;99.90
22192;DHT22;11261;52.456;10.850;2023-09-08T08:46:53;25.80;99.90
22192;DHT22;11261;52.456;10.850;2023-09-08T08:49:24;26.30;99.90
22192;DHT22;11261;52.456;10.850;2023-09-08T08:51:52;26.80;99.90
22192;DHT22;11261;52.456;10.850;2023-09-08T08:54:21;25.90;99.90
22192;DHT22;11261;52.456;10.850;2023-09-08T08:56:50;26.10;99.90
22192;DHT22;11261;52.456;10.850;2023-09-08T08:59:19;26.80;99.90
22192;DHT22;11261;52.456;10.850;2023-09-08T09:01:48;27.60;99.90
22192;DHT22;11261;52.456;10.850;2023-09-08T09:04:17;27.00;99.90
22192;DHT22;11261;52.456;10.850;2023-09-08T09:06:47;26.80;99.90
22192;DHT22;11261;52.456;10.850;2023-09-08T09:09:16;27.50;99.90
22192;DHT22;11261;52.456;10.850;2023-09-08T09:11:45;27.60;99.90
22192;DHT22;11261;52.456;10.850;2023-09-08T09:14:14;27.40;99.90
22192;DHT22;11261;52.456;10.850;2023-09-08T09:16:44;27.00;99.90
22192;DHT22;11261;52.456;10.850;2023-09-08T09:19:18;27.10;99.90
22192;DHT22;11261;52.456;10.850;2023-09-08T09:21:48;27.50;99.90
22192;DHT22;11261;52.456;10.850;2023-09-08T09:24:28;27.40;99.90
22192;DHT22;11261;52.456;10.850;2023-09-08T09:26:58;27.40;99.90
22192;DHT22;11261;52.456;10.850;2023-09-08T09:29:27;27.00;99.90
22192;DHT22;11261;52.456;10.850;2023-09-08T09:31:58;27.00;99.90
22192;DHT22;11261;52.456;10.850;2023-09-08T09:34:30;27.50;99.90
22192;DHT22;11261;52.456;10.850;2023-09-08T09:37:00;27.70;99.90
22192;DHT22;11261;52.456;10.850;2023-09-08T09:39:28;28.30;99.90
22192;DHT22;11261;52.456;10.850;2023-09-08T09:41:57;28.80;99.90
22192;DHT22;11261;52.456;10.850;2023-09-08T09:44:26;28.60;99.90
22192;DHT22;11261;52.456;10.850;2023-09-08T09:46:54;28.40;99.90
22192;DHT22;11261;52.456;10.850;2023-09-08T09:49:23;28.00;99.90
22192;DHT22;11261;52.456;10.850;2023-09-08T09:51:54;28.00;99.90
22192;DHT22;11261;52.456;10.850;2023-09-08T09:54:23;28.00;99.90
22192;DHT22;11261;52.456;10.850;2023-09-08T09:56:52;28.10;99.90
22192;DHT22;11261;52.456;10.850;2023-09-08T09:59:21;28.50;99.90
22192;DHT22;11261;52.456;10.850;2023-09-08T10:01:50;28.20;99.90
22192;DHT22;11261;52.456;10.850;2023-09-08T10:04:20;28.20;98.70
22192;DHT22;11261;52.456;10.850;2023-09-08T10:06:49;28.20;98.80
22192;DHT22;11261;52.456;10.850;2023-09-08T10:09:18;28.70;98.70
22192;DHT22;11261;52.456;10.850;2023-09-08T10:11:49;29.40;97.70
22192;DHT22;11261;52.456;10.850;2023-09-08T10:14:18;28.90;96.50
22192;DHT22;11261;52.456;10.850;2023-09-08T10:16:48;28.90;96.80
22192;DHT22;11261;52.456;10.850;2023-09-08T10:19:20;28.60;96.70
22192;DHT22;11261;52.456;10.850;2023-09-08T10:21:51;28.80;96.40
22192;DHT22;11261;52.456;10.850;2023-09-08T10:24:23;28.70;96.20
22192;DHT22;11261;52.456;10.850;2023-09-08T10:26:58;29.00;94.90
22192;DHT22;11261;52.456;10.850;2023-09-08T10:29:27;29.20;95.30
22192;DHT22;11261;52.456;10.850;2023-09-08T10:31:55;29.10;94.60
22192;DHT22;11261;52.456;10.850;2023-09-08T10:34:25;29.60;94.40
22192;DHT22;11261;52.456;10.850;2023-09-08T10:36:54;29.50;93.70
22192;DHT22;11261;52.456;10.850;2023-09-08T10:39:30;29.20;93.30
22192;DHT22;11261;52.456;10.850;2023-09-08T10:42:23;29.00;93.30
22192;DHT22;11261;52.456;10.850;2023-09-08T10:45:00;29.40;92.40
22192;DHT22;11261;52.456;10.850;2023-09-08T10:47:32;29.50;92.60
22192;DHT22;11261;52.456;10.850;2023-09-08T10:50:04;29.10;92.30
22192;DHT22;11261;52.456;10.850;2023-09-08T10:52:35;29.20;92.30
22192;DHT22;11261;52.456;10.850;2023-09-08T10:55:04;29.30;91.70
22192;DHT22;11261;52.456;10.850;2023-09-08T10:57:35;29.30;91.50
22192;DHT22;11261;52.456;10.850;2023-09-08T11:00:04;29.30;91.60
22192;DHT22;11261;52.456;10.850;2023-09-08T11:02:40;29.10;91.70
22192;DHT22;11261;52.456;10.850;2023-09-08T11:05:10;29.30;91.20
22192;DHT22;11261;52.456;10.850;2023-09-08T11:07:41;29.40;91.20
22192;DHT22;11261;52.456;10.850;2023-09-08T11:10:10;29.40;91.40
22192;DHT22;11261;52.456;10.850;2023-09-08T11:12:40;29.20;89.90
22192;DHT22;11261;52.456;10.850;2023-09-08T11:15:09;29.40;91.10
22192;DHT22;11261;52.456;10.850;2023-09-08T11:17:38;29.70;91.30
22192;DHT22;11261;52.456;10.850;2023-09-08T11:20:09;29.30;91.30
22192;DHT22;11261;52.456;10.850;2023-09-08T11:22:39;29.40;91.50
22192;DHT22;11261;52.456;10.850;2023-09-08T11:25:08;29.40;90.60
22192;DHT22;11261;52.456;10.850;2023-09-08T11:27:39;29.20;91.30
22192;DHT22;11261;52.456;10.850;2023-09-08T11:30:08;29.90;91.40
22192;DHT22;11261;52.456;10.850;2023-09-08T11:32:37;29.10;91.10
22192;DHT22;11261;52.456;10.850;2023-09-08T11:35:07;29.40;91.00
22192;DHT22;11261;52.456;10.850;2023-09-08T11:37:37;29.20;90.90
22192;DHT22;11261;52.456;10.850;2023-09-08T11:40:06;29.00;90.80
22192;DHT22;11261;52.456;10.850;2023-09-08T11:42:42;29.30;91.00
22192;DHT22;11261;52.456;10.850;2023-09-08T11:45:12;29.20;90.40
22192;DHT22;11261;52.456;10.850;2023-09-08T11:47:42;29.10;91.00
22192;DHT22;11261;52.456;10.850;2023-09-08T11:50:11;29.00;90.40
22192;DHT22;11261;52.456;10.850;2023-09-08T11:52:44;29.50;90.10
22192;DHT22;11261;52.456;10.850;2023-09-08T11:55:13;29.20;90.20
22192;DHT22;11261;52.456;10.850;2023-09-08T11:57:45;29.10;90.40
22192;DHT22;11261;52.456;10.850;2023-09-08T12:00:15;29.10;91.00
22192;DHT22;11261;52.456;10.850;2023-09-08T12:02:45;29.50;88.60
22192;DHT22;11261;52.456;10.850;2023-09-08T12:05:20;29.20;88.60
22192;DHT22;11261;52.456;10.850;2023-09-08T12:07:50;29.20;88.80
22192;DHT22;11261;52.456;10.850;2023-09-08T12:10:18;29.00;89.20
22192;DHT22;11261;52.456;10.850;2023-09-08T12:12:49;29.30;90.50
22192;DHT22;11261;52.456;10.850;2023-09-08T12:15:33;29.30;89.00
22192;DHT22;11261;52.456;10.850;2023-09-08T12:18:03;29.00;90.00
22192;DHT22;11261;52.456;10.850;2023-09-08T12:20:32;29.00;88.60
22192;DHT22;11261;52.456;10.850;2023-09-08T12:23:02;29.30;88.10
22192;DHT22;11261;52.456;10.850;2023-09-08T12:25:31;29.10;87.80
22192;DHT22;11261;52.456;10.850;2023-09-08T12:28:05;29.10;89.00
22192;DHT22;11261;52.456;10.850;2023-09-08T12:30:34;29.30;87.80
22192;DHT22;11261;52.456;10.850;2023-09-08T12:33:02;29.50;87.50
22192;DHT22;11261;52.456;10.850;2023-09-08T12:35:31;29.40;88.20
22192;DHT22;11261;52.456;10.850;2023-09-08T12:38:00;29.80;85.70
22192;DHT22;11261;52.456;10.850;2023-09-08T12:40:30;29.50;87.30
22192;DHT22;11261;52.456;10.850;2023-09-08T12:42:59;29.10;84.50
22192;DHT22;11261;52.456;10.850;2023-09-08T12:45:48;29.30;85.60
22192;DHT22;11261;52.456;10.850;2023-09-08T12:48:17;29.20;86.20
22192;DHT22;11261;52.456;10.850;2023-09-08T12:50:45;29.50;83.40
22192;DHT22;11261;52.456;10.850;2023-09-08T12:53:15;29.70;82.40
22192;DHT22;11261;52.456;10.850;2023-09-08T12:55:43;29.60;81.00
22192;DHT22;11261;52.456;10.850;2023-09-08T12:58:11;29.40;82.00
22192;DHT22;11261;52.456;10.850;2023-09-08T13:00:40;29.10;83.50
22192;DHT22;11261;52.456;10.850;2023-09-08T13:03:09;29.30;82.80
22192;DHT22;11261;52.456;10.850;2023-09-08T13:05:38;29.50;83.60
22192;DHT22;11261;52.456;10.850;2023-09-08T13:08:06;29.40;82.20
22192;DHT22;11261;52.456;10.850;2023-09-08T13:10:35;29.20;83.40
22192;DHT22;11261;52.456;10.850;2023-09-08T13:13:03;29.40;82.30
22192;DHT22;11261;52.456;10.850;2023-09-08T13:15:32;29.50;83.40
22192;DHT22;11261;52.456;10.850;2023-09-08T13:18:00;29.50;82.50
22192;DHT22;11261;52.456;10.850;2023-09-08T13:20:30;29.50;83.20
22192;DHT22;11261;52.456;10.850;2023-09-08T13:22:58;29.30;83.30
22192;DHT22;11261;52.456;10.850;2023-09-08T13:25:27;29.40;80.90
22192;DHT22;11261;52.456;10.850;2023-09-08T13:27:55;29.30;80.90
22192;DHT22;11261;52.456;10.850;2023-09-08T13:30:24;29.20;80.00
22192;DHT22;11261;52.456;10.850;2023-09-08T13:32:54;29.30;80.40
22192;DHT22;11261;52.456;10.850;2023-09-08T13:35:23;29.30;80.30
22192;DHT22;11261;52.456;10.850;2023-09-08T13:37:52;29.20;80.50
22192;DHT22;11261;52.456;10.850;2023-09-08T13:40:21;29.30;81.50
22192;DHT22;11261;52.456;10.850;2023-09-08T13:42:49;29.20;81.00
22192;DHT22;11261;52.456;10.850;2023-09-08T13:45:18;29.40;80.30
22192;DHT22;11261;52.456;10.850;2023-09-08T13:47:46;29.00;80.80
22192;DHT22;11261;52.456;10.850;2023-09-08T13:50:14;29.10;80.70
22192;DHT22;11261;52.456;10.850;2023-09-08T13:52:44;29.20;81.20
22192;DHT22;11261;52.456;10.850;2023-09-08T13:55:15;29.30;82.00
22192;DHT22;11261;52.456;10.850;2023-09-08T13:57:46;29.30;80.80
22192;DHT22;11261;52.456;10.850;2023-09-08T14:00:16;29.30;81.40
22192;DHT22;11261;52.456;10.850;2023-09-08T14:02:50;29.20;80.00
22192;DHT22;11261;52.456;10.850;2023-09-08T14:05:25;29.00;80.20
22192;DHT22;11261;52.456;10.850;2023-09-08T14:08:01;29.10;80.20
22192;DHT22;11261;52.456;10.850;2023-09-08T14:10:42;29.30;80.30
22192;DHT22;11261;52.456;10.850;2023-09-08T14:13:14;29.20;80.40
22192;DHT22;11261;52.456;10.850;2023-09-08T14:15:42;29.40;81.20
22192;DHT22;11261;52.456;10.850;2023-09-08T14:18:10;29.40;79.50
22192;DHT22;11261;52.456;10.850;2023-09-08T14:20:38;29.20;82.40
22192;DHT22;11261;52.456;10.850;2023-09-08T14:23:07;29.30;81.80
22192;DHT22;11261;52.456;10.850;2023-09-08T14:25:36;29.30;82.10
22192;DHT22;11261;52.456;10.850;2023-09-08T14:28:05;29.40;82.90
22192;DHT22;11261;52.456;10.850;2023-09-08T14:30:34;29.20;81.30
22192;DHT22;11261;52.456;10.850;2023-09-08T14:33:03;29.10;82.50
22192;DHT22;11261;52.456;10.850;2023-09-08T14:35:32;29.10;82.30
22192;DHT22;11261;52.456;10.850;2023-09-08T14:38:00;29.20;83.30
22192;DHT22;11261;52.456;10.850;2023-09-08T14:40:30;29.20;84.30
22192;DHT22;11261;52.456;10.850;2023-09-08T14:42:58;29.30;83.00
22192;DHT22;11261;52.456;10.850;2023-09-08T14:45:28;29.20;82.50
22192;DHT22;11261;52.456;10.850;2023-09-08T14:47:56;29.30;83.30
22192;DHT22;11261;52.456;10.850;2023-09-08T14:50:27;29.10;82.50
22192;DHT22;11261;52.456;10.850;2023-09-08T14:52:55;29.00;82.10
22192;DHT22;11261;52.456;10.850;2023-09-08T14:55:24;29.20;83.10
22192;DHT22;11261;52.456;10.850;2023-09-08T14:57:52;29.20;82.50
22192;DHT22;11261;52.456;10.850;2023-09-08T15:00:21;29.10;82.90
22192;DHT22;11261;52.456;10.850;2023-09-08T15:02:51;29.00;82.60
22192;DHT22;11261;52.456;10.850;2023-09-08T15:05:20;28.90;83.20
22192;DHT22;11261;52.456;10.850;2023-09-08T15:07:48;29.20;84.10
22192;DHT22;11261;52.456;10.850;2023-09-08T15:10:16;29.10;85.10
22192;DHT22;11261;52.456;10.850;2023-09-08T15:12:45;29.00;86.20
22192;DHT22;11261;52.456;10.850;2023-09-08T15:15:13;29.00;85.40
22192;DHT22;11261;52.456;10.850;2023-09-08T15:17:42;28.90;85.30
22192;DHT22;11261;52.456;10.850;2023-09-08T15:20:12;29.00;84.60
22192;DHT22;11261;52.456;10.850;2023-09-08T15:22:41;28.80;85.10
22192;DHT22;11261;52.456;10.850;2023-09-08T15:25:09;28.90;86.10
22192;DHT22;11261;52.456;10.850;2023-09-08T15:27:38;29.00;85.00
22192;DHT22;11261;52.456;10.850;2023-09-08T15:30:07;28.90;85.50